Arlington, Massachusetts
Current Conditions -  °F | °C
As of 2:56 PM on Friday 21 Nov 2014 (Local Time) from KBED Reporting Station
Few Clouds Few Clouds  
Wind Chill: 20°   Ceiling: Unl
Heat Index: 32°   Visibility: 10mi
Dew Point:   Wind: 21mph
Humidity: 35%   Direction: 290°WNW
Pressure: 30.19"   Gusts: 32mph
Location:  42.42°N, 71.16°W
Report Text: KBED 211956Z 29018G28KT 10SM FEW055 00/M14 A3019 RMK AO2 PK WND 31028/1953 SLP240 T00001139
Loading
Personal Weather Stations






























Interactive Weather Map New forecast layout! Learn more

10-Day Weather Forecast

Advertisements
Track Severe Weather on mobile